Time;durP1;ratioP1;P1;durP2;ratioP2;P2;SDS_P1;SDS_P2;PMS_P1;PMS_P2;Temp;Humidity;BMP_temperature;BMP_pressure;BME280_temperature;BME280_humidity;BME280_pressure;Samples;Min_cycle;Max_cycle;Signal;HPM_P1;HPM_P2
2023/03/25 00:02:04;;;;;;;0.20;0.20;;;;;;;;;;5033301;28;20520;-70
2023/03/25 00:04:33;;;;;;;0.10;0.10;;;;;;;;;;5031485;28;20981;-70
2023/03/25 00:07:01;;;;;;;0.10;0.10;;;;;;;;;;5033325;28;20515;-71
2023/03/25 00:09:31;;;;;;;0.10;0.10;;;;;;;;;;5033256;28;20439;-70
2023/03/25 00:11:59;;;;;;;0.10;0.10;;;;;;;;;;5033319;28;20437;-71
2023/03/25 00:14:26;;;;;;;0.00;0.00;;;;;;;;;;5032692;28;20848;-71
2023/03/25 00:16:53;;;;;;;0.50;0.20;;;;;;;;;;5033049;28;21449;-71
2023/03/25 00:19:20;;;;;;;0.10;0.10;;;;;;;;;;5031026;28;20438;-71
2023/03/25 00:21:49;;;;;;;0.20;0.20;;;;;;;;;;5032987;28;20453;-71
2023/03/25 00:24:17;;;;;;;0.10;0.10;;;;;;;;;;5031437;28;21027;-71
2023/03/25 00:26:45;;;;;;;0.10;0.10;;;;;;;;;;5032658;28;20431;-71
2023/03/25 00:29:12;;;;;;;0.20;0.20;;;;;;;;;;5032807;28;20430;-71
2023/03/25 00:31:40;;;;;;;0.10;0.10;;;;;;;;;;5031442;28;20497;-71
2023/03/25 00:34:13;;;;;;;0.55;0.52;;;;;;;;;;5032500;28;20427;-71
2023/03/25 00:36:42;;;;;;;0.00;0.00;;;;;;;;;;5032776;28;20953;-71
2023/03/25 00:39:13;;;;;;;0.05;0.05;;;;;;;;;;5030979;28;20434;-71
2023/03/25 00:41:42;;;;;;;0.15;0.15;;;;;;;;;;5031685;28;20462;-71
2023/03/25 00:44:16;;;;;;;0.10;0.10;;;;;;;;;;5029792;28;20434;-71
2023/03/25 00:46:45;;;;;;;0.13;0.13;;;;;;;;;;5032751;28;20516;-71
2023/03/25 00:49:12;;;;;;;0.10;0.10;;;;;;;;;;5032485;28;20807;-71
2023/03/25 00:51:39;;;;;;;0.20;0.20;;;;;;;;;;5030826;28;20956;-71
2023/03/25 00:54:20;;;;;;;0.10;0.10;;;;;;;;;;5032061;28;20902;-71
2023/03/25 00:56:49;;;;;;;0.10;0.10;;;;;;;;;;5032338;28;20817;-71
2023/03/25 00:59:15;;;;;;;0.10;0.10;;;14.10;99.90;;;;;;5032376;28;20460;-71
2023/03/25 01:01:44;;;;;;;0.00;0.00;;;6.40;99.90;;;;;;5032645;28;20431;-71
2023/03/25 01:04:11;;;;;;;0.03;0.03;;;6.40;99.90;;;;;;5031847;28;20430;-71
2023/03/25 01:06:50;;;;;;;0.95;0.15;;;6.40;99.90;;;;;;5032165;28;20779;-71
2023/03/25 01:09:18;;;;;;;1.90;0.25;;;6.40;99.90;;;;;;5030518;28;20430;-71
2023/03/25 01:11:46;;;;;;;0.15;0.15;;;;;;;;;;5031964;28;20433;-71
2023/03/25 01:14:15;;;;;;;0.20;0.20;;;;;;;;;;5031681;28;20517;-71
2023/03/25 01:16:42;;;;;;;0.10;0.10;;;;;;;;;;5032016;28;20439;-71
2023/03/25 01:19:10;;;;;;;0.10;0.10;;;;;;;;;;5032105;28;20890;-71
2023/03/25 01:21:37;;;;;;;0.10;0.10;;;;;;;;;;5032278;28;20462;-71
2023/03/25 01:24:10;;;;;;;0.13;0.13;;;;;;;;;;5029762;28;20435;-71
2023/03/25 01:26:40;;;;;;;0.10;0.10;;;;;;;;;;5018567;28;20821;-71
2023/03/25 01:29:10;;;;;;;0.10;0.10;;;;;;;;;;5031864;28;20530;-71
2023/03/25 01:31:37;;;;;;;0.13;0.13;;;;;;;;;;5030259;28;20427;-71
2023/03/25 01:34:05;;;;;;;0.20;0.20;;;;;;;;;;5031294;28;20438;-71
2023/03/25 01:36:36;;;;;;;0.20;0.20;;;;;;;;;;5029921;28;20458;-71
2023/03/25 01:39:07;;;;;;;0.20;0.20;;;;;;;;;;5031751;28;20659;-71
2023/03/25 01:41:35;;;;;;;0.20;0.20;;;;;;;;;;5026543;28;20467;-71
2023/03/25 01:44:21;;;;;;;0.10;0.10;;;;;;;;;;5028973;28;20471;-71
2023/03/25 01:46:51;;;;;;;0.50;0.30;;;;;;;;;;5015313;28;20431;-71
2023/03/25 01:49:22;;;;;;;0.30;0.30;;;;;;;;;;5031104;28;20470;-71
2023/03/25 01:51:54;;;;;;;8.20;0.25;;;;;;;;;;5031082;28;20435;-71
2023/03/25 01:54:26;;;;;;;0.20;0.20;;;;;;;;;;5030994;28;20430;-71
2023/03/25 01:56:54;;;;;;;0.60;0.30;;;;;;;;;;5028028;28;20461;-71
2023/03/25 01:59:23;;;;;;;0.10;0.10;;;;;;;;;;5029610;28;20497;-71
2023/03/25 02:01:52;;;;;;;0.55;0.55;;;;;;;;;;5011427;28;20444;-71
2023/03/25 02:04:27;;;;;;;0.10;0.10;;;;;;;;;;5009549;28;20941;-71
2023/03/25 02:06:56;;;;;;;0.10;0.10;;;;;;;;;;5010911;28;20440;-71
2023/03/25 02:09:25;;;;;;;0.20;0.20;;;;;;;;;;5011268;28;20436;-71
2023/03/25 02:11:53;;;;;;;0.10;0.10;;;;;;;;;;5019093;28;20438;-71
2023/03/25 02:14:26;;;;;;;0.20;0.20;;;;;;;;;;5030618;28;20442;-71
2023/03/25 02:17:10;;;;;;;0.10;0.10;;;;;;;;;;5031143;28;20438;-71
2023/03/25 02:19:50;;;;;;;0.10;0.10;;;;;;;;;;5031035;28;20434;-71
2023/03/25 02:22:36;;;;;;;0.47;0.23;;;;;;;;;;5030832;28;20439;-71
2023/03/25 02:25:22;;;;;;;0.20;0.20;;;;;;;;;;5029813;28;20434;-71
2023/03/25 02:27:57;;;;;;;0.20;0.20;;;;;;;;;;5027658;28;20553;-72
2023/03/25 02:30:45;;;;;;;0.10;0.10;;;;;;;;;;5029692;28;20438;-71
2023/03/25 02:33:12;;;;;;;0.20;0.20;;;;;;;;;;5029930;28;20517;-71
2023/03/25 02:35:39;;;;;;;6.10;0.98;;;;;;;;;;5030145;28;20467;-71
2023/03/25 02:38:30;;;;;;;0.20;0.20;;;;;;;;;;5030836;28;20821;-71
2023/03/25 02:40:59;;;;;;;1.40;0.50;;;;;;;;;;5030569;28;20437;-71
2023/03/25 02:43:36;;;;;;;0.10;0.10;;;;;;;;;;5028584;28;20608;-71
2023/03/25 02:46:05;;;;;;;0.30;0.30;;;;;;;;;;5024149;28;20994;-71
2023/03/25 02:48:35;;;;;;;0.30;0.30;;;;;;;;;;5030478;28;20950;-71
2023/03/25 02:51:09;;;;;;;1.30;0.40;;;;;;;;;;5030059;28;20441;-71
2023/03/25 02:53:37;;;;;;;0.10;0.10;;;;;;;;;;5030337;28;20521;-72
2023/03/25 02:56:09;;;;;;;0.30;0.30;;;;;;;;;;5028709;28;20423;-72
2023/03/25 02:58:38;;;;;;;0.10;0.10;;;;;;;;;;5030512;28;20518;-71
2023/03/25 03:01:09;;;;;;;0.20;0.20;;;;;;;;;;5028280;28;20438;-72
2023/03/25 03:03:36;;;;;;;0.20;0.20;;;;;;;;;;5029761;28;20466;-72
2023/03/25 03:06:04;;;;;;;0.20;0.20;;;;;;;;;;5028507;28;20514;-72
2023/03/25 03:08:32;;;;;;;0.32;0.32;;;;;;;;;;5029091;28;20438;-72
2023/03/25 03:11:02;;;;;;;0.10;0.10;;;;;;;;;;5030115;28;20526;-72
2023/03/25 03:13:48;;;;;;;0.10;0.10;;;;;;;;;;5029683;28;21182;-72
2023/03/25 03:16:34;;;;;;;1.70;0.30;;;;;;;;;;5028515;28;20822;-72
2023/03/25 03:19:20;;;;;;;0.30;0.30;;;;;;;;;;5029049;28;20882;-71
2023/03/25 03:21:50;;;;;;;0.30;0.20;;;;;;;;;;5030082;28;20522;-72
2023/03/25 03:24:37;;;;;;;0.20;0.20;;;;;;;;;;5029602;28;20431;-72
2023/03/25 03:27:10;;;;;;;0.28;0.28;;;;;;;;;;5029786;28;20968;-73
2023/03/25 03:29:45;;;;;;;0.70;0.30;;;;;;;;;;5029522;28;20434;-72
2023/03/25 03:32:13;;;;;;;0.20;0.20;;;;;;;;;;5029995;28;20489;-71
2023/03/25 03:34:46;;;;;;;0.10;0.10;;;;;;;;;;5027464;28;20426;-72
2023/03/25 03:37:15;;;;;;;0.70;0.30;;;;;;;;;;5029751;28;20427;-72
2023/03/25 03:39:43;;;;;;;0.13;0.13;;;;;;;;;;5028071;28;20455;-72
2023/03/25 03:42:20;;;;;;;0.10;0.10;;;;;;;;;;5029792;28;20426;-72
2023/03/25 03:44:52;;;;;;;0.20;0.20;;;;;;;;;;5029311;28;20925;-72
2023/03/25 03:47:28;;;;;;;0.15;0.15;;;;;;;;;;5029879;28;20525;-73
2023/03/25 03:49:58;;;;;;;0.20;0.20;;;;;;;;;;5010109;28;20439;-72
2023/03/25 03:52:46;;;;;;;0.20;0.20;;;;;;;;;;5009922;28;20432;-72
2023/03/25 03:55:20;;;;;;;0.10;0.10;;;;;;;;;;5009517;28;20511;-72
2023/03/25 03:57:51;;;;;;;0.73;0.13;;;;;;;;;;5009715;28;20486;-72
2023/03/25 04:00:24;;;;;;;0.10;0.10;;;;;;;;;;5010146;28;20945;-72
2023/03/25 04:02:54;;;;;;;0.20;0.20;;;;;;;;;;5009949;28;20786;-72
2023/03/25 04:05:31;;;;;;;0.70;0.20;;;;;;;;;;5024404;28;20441;-72
2023/03/25 04:08:02;;;;;;;0.10;0.10;;;;;;;;;;5029671;28;20466;-72
2023/03/25 04:10:38;;;;;;;0.10;0.10;;;;;;;;;;5027850;28;20479;-72
2023/03/25 04:13:10;;;;;;;0.10;0.10;;;;;;;;;;5029077;28;20465;-72
2023/03/25 04:15:40;;;;;;;0.10;0.10;;;;;;;;;;5028124;28;20924;-72
2023/03/25 04:18:11;;;;;;;0.20;0.20;;;;;;;;;;5029288;28;21045;-73
2023/03/25 04:20:43;;;;;;;0.30;0.30;;;;;;;;;;5023774;28;20435;-72
2023/03/25 04:23:15;;;;;;;0.20;0.20;;;;;;;;;;5008575;28;20468;-72
2023/03/25 04:25:46;;;;;;;0.20;0.20;;;;;;;;;;5014959;28;20489;-73
2023/03/25 04:28:16;;;;;;;0.20;0.20;;;;;;;;;;5029611;28;20441;-72
2023/03/25 04:30:44;;;;;;;0.17;0.17;;;;;;;;;;5032738;28;20465;-73
2023/03/25 04:33:12;;;;;;;0.20;0.20;;;;;;;;;;5030604;28;20510;-72
2023/03/25 04:35:42;;;;;;;0.17;0.17;;;;;;;;;;5032270;28;20426;-72
2023/03/25 04:38:16;;;;;;;0.40;0.40;;;;;;;;;;5031585;28;20431;-72
2023/03/25 04:40:45;;;;;;;1.60;0.50;;;;;;;;;;5030342;28;20514;-72
2023/03/25 04:43:16;;;;;;;0.40;0.30;;;;;;;;;;5032355;28;20434;-73
2023/03/25 04:45:53;;;;;;;0.20;0.20;;;;;;;;;;5032372;28;20453;-73
2023/03/25 04:48:28;;;;;;;0.20;0.20;;;;;;;;;;5033105;28;20454;-72
2023/03/25 04:50:58;;;;;;;0.10;0.10;;;;;;;;;;5032451;28;20550;-73
2023/03/25 04:53:26;;;;;;;0.10;0.10;;;;;;;;;;5031157;28;20430;-72
2023/03/25 04:55:55;;;;;;;0.20;0.20;;;;;;;;;;5031829;28;20458;-73
2023/03/25 04:58:22;;;;;;;0.30;0.30;;;;;;;;;;5031508;28;20897;-72
2023/03/25 05:00:51;;;;;;;0.20;0.20;;;;;;;;;;5031637;28;20461;-72
2023/03/25 05:03:22;;;;;;;0.20;0.20;;;;;;;;;;5032242;28;20829;-73
2023/03/25 05:05:50;;;;;;;0.13;0.13;;;;;;;;;;5031683;28;20434;-73
2023/03/25 05:08:20;;;;;;;0.20;0.20;;;;;;;;;;5030474;28;21052;-73
2023/03/25 05:10:48;;;;;;;0.50;0.50;;;;;;;;;;5032288;28;20767;-72
2023/03/25 05:13:15;;;;;;;0.50;0.35;;;;;;;;;;5030600;28;20431;-73
2023/03/25 05:15:42;;;;;;;0.20;0.20;;;;;;;;;;5031763;28;20427;-72
2023/03/25 05:18:14;;;;;;;0.20;0.20;;;;;;;;;;5031827;28;20522;-72
2023/03/25 05:20:42;;;;;;;0.10;0.10;;;;;;;;;;5032090;28;20431;-72
2023/03/25 05:23:15;;;;;;;0.30;0.30;;;;;;;;;;5031904;28;20431;-72
2023/03/25 05:25:42;;;;;;;0.40;0.40;;;;;;;;;;5029851;28;20467;-72
2023/03/25 05:28:12;;;;;;;0.20;0.20;;;;;;;;;;5031627;28;20438;-72
2023/03/25 05:30:44;;;;;;;0.25;0.25;;;;;;;;;;5030350;28;20443;-73
2023/03/25 05:33:16;;;;;;;0.20;0.20;;;;;;;;;;5031644;28;20458;-72
2023/03/25 05:35:44;;;;;;;0.10;0.10;;;;;;;;;;5030085;28;20427;-73
2023/03/25 05:38:17;;;;;;;0.77;0.28;;;;;;;;;;5031709;28;20492;-72
2023/03/25 05:40:45;;;;;;;0.40;0.25;;;;;;;;;;5029437;28;20431;-72
2023/03/25 05:43:13;;;;;;;2.40;0.40;;;;;;;;;;5031518;28;20430;-72
2023/03/25 05:45:45;;;;;;;0.40;0.40;;;;;;;;;;5031477;28;20430;-72
2023/03/25 05:48:12;;;;;;;0.38;0.38;;;;;;;;;;5031417;28;20431;-72
2023/03/25 05:50:43;;;;;;;0.20;0.20;;;;;;;;;;5031546;28;20431;-73
2023/03/25 05:53:12;;;;;;;0.10;0.10;;;;;;;;;;5031580;28;20473;-72
2023/03/25 05:55:39;;;;;;;0.10;0.10;;;;;;;;;;5029635;28;20525;-72
2023/03/25 05:58:07;;;;;;;0.10;0.10;;;;;;;;;;5030146;28;20913;-73
2023/03/25 06:00:35;;;;;;;0.20;0.20;;;;;;;;;;5031412;28;20427;-73
2023/03/25 06:03:05;;;;;;;0.20;0.20;;;;;;;;;;5029549;28;20773;-71
2023/03/25 06:05:35;;;;;;;0.30;0.30;;;;;;;;;;5029709;28;20430;-71
2023/03/25 06:08:02;;;;;;;0.30;0.30;;;;;;;;;;5031020;28;20461;-72
2023/03/25 06:10:30;;;;;;;0.10;0.10;;;;;;;;;;5029617;28;20921;-73
2023/03/25 06:12:58;;;;;;;0.20;0.20;;;;;;;;;;5030079;28;20928;-73
2023/03/25 06:15:32;;;;;;;0.20;0.20;;;;;;;;;;5030542;28;20434;-73
2023/03/25 06:18:01;;;;;;;2.80;0.30;;;;;;;;;;5030943;28;20430;-73
2023/03/25 06:20:28;;;;;;;0.30;0.30;;;;;;;;;;5030635;28;20917;-73
2023/03/25 06:22:55;;;;;;;0.10;0.10;;;;;;;;;;5029796;28;20479;-73
2023/03/25 06:25:23;;;;;;;0.30;0.30;;;;;;;;;;5030630;28;20968;-73
2023/03/25 06:27:50;;;;;;;0.30;0.30;;;;;;;;;;5028554;28;20522;-73
2023/03/25 06:30:19;;;;;;;0.20;0.20;;;;;;;;;;5030445;28;21000;-72
2023/03/25 06:32:49;;;;;;;0.57;0.35;;;;;;;;;;5030354;28;20435;-73
2023/03/25 06:35:18;;;;;;;0.20;0.20;;;;;;;;;;5030060;28;20434;-72
2023/03/25 06:37:47;;;;;;;0.52;0.52;;;;;;;;;;5030399;28;20439;-72
2023/03/25 06:40:14;;;;;;;0.90;0.38;;;;;;;;;;5030796;28;20454;-71
2023/03/25 06:42:42;;;;;;;0.47;0.25;;;;;;;;;;5030371;28;20431;-71
2023/03/25 06:45:09;;;;;;;0.20;0.20;;;;;;;;;;5028259;28;20783;-71
2023/03/25 06:47:36;;;;;;;0.20;0.20;;;;;;;;;;5030047;28;20573;-71
2023/03/25 06:50:04;;;;;;;0.20;0.20;;;;;;;;;;5030587;28;20489;-71
2023/03/25 06:52:31;;;;;;;0.30;0.30;;;;;;;;;;5030264;28;20535;-71
2023/03/25 06:55:01;;;;;;;0.20;0.20;;;;;;;;;;5030138;28;21083;-72
2023/03/25 06:57:30;;;;;;;0.35;0.28;;;;;;;;;;5029759;28;20496;-72
2023/03/25 07:00:00;;;;;;;0.20;0.20;;;;;;;;;;5028094;28;20468;-73
2023/03/25 07:02:27;;;;;;;0.20;0.20;;;;;;;;;;5030060;28;20530;-72
2023/03/25 07:04:54;;;;;;;1.50;0.28;;;;;;;;;;5029680;28;20427;-73
2023/03/25 07:07:24;;;;;;;0.60;0.60;;;;;;;;;;5028856;28;20431;-72
2023/03/25 07:09:54;;;;;;;0.23;0.23;;;;;;;;;;5029025;28;20521;-75
2023/03/25 07:12:39;;;;;;;0.10;0.10;;;;;;;;;;5028224;28;20912;-71
2023/03/25 07:15:07;;;;;;;0.40;0.40;;;;;;;;;;5016108;28;20855;-72
2023/03/25 07:17:34;;;;;;;0.40;0.40;;;;;;;;;;5025433;28;20432;-72
2023/03/25 07:20:02;;;;;;;1.10;0.40;;;;;;;;;;5012143;28;20500;-71
2023/03/25 07:22:30;;;;;;;0.50;0.50;;;;;;;;;;5029769;28;20438;-72
2023/03/25 07:24:57;;;;;;;0.30;0.30;;;;;;;;;;5029590;28;20541;-71
2023/03/25 07:27:25;;;;;;;1.23;0.43;;;;;;;;;;5026808;28;20431;-71
2023/03/25 07:29:55;;;;;;;0.15;0.15;;;;;;;;;;5029858;28;20426;-71
2023/03/25 07:32:24;;;;;;;0.40;0.40;;;;;;;;;;5029565;28;20429;-71
2023/03/25 07:34:51;;;;;;;0.80;0.40;;;;;;;;;;5026328;28;20434;-71
2023/03/25 07:37:19;;;;;;;0.20;0.20;;;;;;;;;;5029179;28;20775;-72
2023/03/25 07:39:46;;;;;;;0.30;0.30;;;;;;;;;;5027789;28;20437;-71
2023/03/25 07:42:13;;;;;;;0.30;0.30;;;;;;;;;;5029958;28;20431;-72
2023/03/25 07:44:40;;;;;;;2.40;0.55;;;;;;;;;;5028067;28;20438;-71
2023/03/25 07:47:07;;;;;;;0.90;0.50;;;;;;;;;;5029217;28;20435;-71
2023/03/25 07:49:34;;;;;;;0.90;0.43;;;;;;;;;;5029878;28;20458;-71
2023/03/25 07:52:02;;;;;;;0.35;0.32;;;;;;;;;;5027758;28;20519;-71
2023/03/25 07:54:29;;;;;;;0.20;0.20;;;;;;;;;;5027111;28;20438;-71
2023/03/25 07:57:10;;;;;;;1.05;0.35;;;;;;;;;;5026581;28;20786;-71
2023/03/25 07:59:37;;;;;;;1.70;0.35;;;;;;;;;;5029469;28;20502;-71
2023/03/25 08:02:04;;;;;;;4.40;0.40;;;;;;;;;;5027655;28;20465;-71
2023/03/25 08:04:32;;;;;;;2.60;0.20;;;;;;;;;;5030626;28;20526;-71
2023/03/25 08:07:02;;;;;;;1.80;0.63;;;;;;;;;;5031131;28;20431;-71
2023/03/25 08:09:30;;;;;;;0.30;0.30;;;;;;;;;;5033496;28;20476;-71
2023/03/25 08:11:57;;;;;;;1.80;0.28;;;;;;;;;;5033112;28;20426;-72
2023/03/25 08:14:24;;;;;;;0.35;0.35;;;;;;;;;;5032788;28;20430;-72
2023/03/25 08:16:52;;;;;;;0.38;0.38;;;;;;;;;;5031569;28;20465;-70
2023/03/25 08:19:19;;;;;;;0.30;0.30;;;;;;;;;;5032973;28;20794;-72
2023/03/25 08:21:48;;;;;;;0.50;0.50;;;;;;;;;;5030864;28;20437;-71
2023/03/25 08:24:16;;;;;;;1.60;0.50;;;;;;;;;;5032403;28;20438;-71
2023/03/25 08:26:43;;;;;;;2.40;0.80;;;;;;;;;;5032798;28;20434;-71
2023/03/25 08:29:10;;;;;;;1.70;0.45;;;;;;;;;;5031671;28;20872;-71
2023/03/25 08:31:39;;;;;;;0.57;0.55;;;;;;;;;;5032665;28;20462;-71
2023/03/25 08:34:06;;;;;;;0.30;0.30;;;;;;;;;;5032390;28;20775;-72
2023/03/25 08:36:38;;;;;;;0.95;0.40;;;;;;;;;;5032902;28;20442;-71
2023/03/25 08:39:10;;;;;;;1.50;0.40;;;;;;;;;;5033228;28;20481;-71
2023/03/25 08:41:38;;;;;;;1.90;0.70;;;;;;;;;;5032616;28;20485;-71
2023/03/25 08:44:06;;;;;;;0.70;0.70;;;;;;;;;;5032153;28;20435;-71
2023/03/25 08:46:33;;;;;;;0.75;0.45;;;;;;;;;;5032859;28;20504;-71
2023/03/25 08:49:04;;;;;;;0.70;0.30;;;;;;;;;;5031314;28;20441;-71
2023/03/25 08:51:33;;;;;;;0.20;0.20;;;;;;;;;;5032749;28;20462;-71
2023/03/25 08:54:01;;;;;;;1.42;0.38;;;;;;;;;;5030149;28;20459;-71
2023/03/25 08:56:30;;;;;;;0.70;0.27;;;;;;;;;;5032368;28;20431;-71
2023/03/25 08:58:57;;;;;;;0.50;0.50;;;;;;;;;;5031721;28;20439;-72
2023/03/25 09:01:24;;;;;;;0.15;0.15;;;;;;;;;;5031248;28;20423;-71
2023/03/25 09:03:51;;;;;;;0.45;0.43;;;;;;;;;;5031602;28;20434;-70
2023/03/25 09:06:18;;;;;;;0.60;0.60;;;;;;;;;;5031799;28;20484;-71
2023/03/25 09:08:45;;;;;;;1.00;0.40;;;;;;;;;;5030380;28;20431;-71
2023/03/25 09:11:16;;;;;;;1.00;0.65;;;;;;;;;;5031933;28;20426;-71
2023/03/25 09:13:56;;;;;;;0.20;0.20;;;;;;;;;;5031052;28;20942;-72
2023/03/25 09:16:23;;;;;;;0.40;0.40;;;;;;;;;;5030634;28;20427;-71
2023/03/25 09:18:51;;;;;;;0.20;0.20;;;;;;;;;;5032174;28;20438;-71
2023/03/25 09:21:18;;;;;;;0.32;0.32;;;;;;;;;;5031669;28;20426;-71
2023/03/25 09:23:45;;;;;;;0.70;0.40;;;;;;;;;;5028990;28;20933;-71
2023/03/25 09:26:12;;;;;;;0.20;0.20;;;;;;;;;;5031511;28;20435;-71
2023/03/25 09:28:39;;;;;;;0.20;0.20;;;;;;;;;;5031504;28;20821;-71
2023/03/25 09:31:08;;;;;;;2.50;0.40;;;;;;;;;;5031396;28;20431;-71
2023/03/25 09:33:35;;;;;;;0.30;0.30;;;;;;;;;;5031576;28;20522;-72
2023/03/25 09:36:03;;;;;;;0.20;0.20;;;;;;;;;;5031195;28;20509;-71
2023/03/25 09:38:30;;;;;;;0.40;0.40;;;;;;;;;;5031234;28;20430;-71
2023/03/25 09:40:57;;;;;;;2.70;0.70;;;;;;;;;;5029408;28;21100;-71
2023/03/25 09:43:37;;;;;;;0.40;0.30;;;;;;;;;;5031159;28;20449;-71
2023/03/25 09:46:09;;;;;;;0.35;0.35;;;;;;;;;;5029928;28;20890;-70
2023/03/25 09:48:37;;;;;;;0.45;0.45;;;;;;;;;;5030827;28;20427;-71
2023/03/25 09:51:04;;;;;;;0.30;0.30;;;;;;;;;;5031383;28;20430;-71
2023/03/25 09:53:38;;;;;;;0.73;0.45;;;;;;;;;;5029652;28;20426;-71
2023/03/25 09:56:06;;;;;;;0.20;0.20;;;;;;;;;;5030703;28;20438;-70
2023/03/25 09:58:38;;;;;;;0.68;0.68;;;;;;;;;;5029349;28;20442;-71
2023/03/25 10:01:23;;;;;;;0.30;0.30;;;;;;;;;;5027334;28;21226;-71
2023/03/25 10:04:13;;;;;;;0.10;0.10;;;;;;;;;;5030465;28;20503;-70
2023/03/25 10:06:56;;;;;;;0.40;0.40;;;;;;;;;;5030905;28;20789;-71
2023/03/25 10:09:39;;;;;;;0.20;0.20;;;;;;;;;;5028949;28;20459;-72
2023/03/25 10:12:28;;;;;;;0.50;0.50;;;;;;;;;;5031020;28;20441;-71
2023/03/25 10:14:55;;;;;;;0.20;0.20;;;;;;;;;;5027741;28;20481;-71
2023/03/25 10:17:28;;;;;;;0.10;0.10;;;;;;;;;;5030723;28;20427;-71
2023/03/25 10:19:55;;;;;;;0.17;0.17;;;;;;;;;;5030036;28;20453;-71
2023/03/25 10:22:31;;;;;;;0.10;0.10;;;;;;;;;;5029569;28;20520;-71
2023/03/25 10:25:06;;;;;;;0.30;0.30;;;;;;;;;;5029773;28;20493;-71
2023/03/25 10:27:33;;;;;;;0.60;0.50;;;;;;;;;;5027724;28;20470;-71
2023/03/25 10:30:03;;;;;;;0.38;0.38;;;;;;;;;;5030240;28;20800;-70
2023/03/25 10:32:39;;;;;;;7.60;0.30;;;;;;;;;;5029290;28;20473;-70
2023/03/25 10:35:10;;;;;;;0.20;0.20;;;;;;;;;;5027449;28;20435;-70
2023/03/25 10:37:40;;;;;;;0.20;0.20;;;;;;;;;;5030249;28;20510;-70
2023/03/25 10:40:24;;;;;;;0.10;0.10;;;;;;;;;;5028782;28;20430;-70
2023/03/25 10:42:57;;;;;;;0.20;0.20;;;;;;;;;;5027783;28;20431;-70
2023/03/25 10:45:28;;;;;;;0.10;0.10;;;;;;;;;;5029688;28;20435;-70
2023/03/25 10:48:04;;;;;;;0.30;0.30;;;;;;;;;;5028523;28;20430;-68
2023/03/25 10:50:32;;;;;;;0.10;0.10;;;;;;;;;;5030129;28;20936;-69
2023/03/25 10:52:59;;;;;;;0.30;0.30;;;;;;;;;;5030097;28;20469;-69
2023/03/25 10:55:28;;;;;;;0.20;0.20;;;;;;;;;;5029203;28;20435;-70
2023/03/25 10:57:55;;;;;;;0.10;0.10;;;;;;;;;;5028340;28;20422;-70
2023/03/25 11:00:25;;;;;;;1.30;0.30;;;;;;;;;;5027447;28;20426;-70
2023/03/25 11:02:54;;;;;;;1.17;0.20;;;;;;;;;;5010050;28;20443;-70
2023/03/25 11:05:27;;;;;;;0.28;0.28;;;;;;;;;;5020212;28;20435;-71
2023/03/25 11:07:56;;;;;;;0.20;0.20;;;;;;;;;;5029505;28;20431;-71
2023/03/25 11:10:27;;;;;;;0.80;0.10;;;;;;;;;;5029509;28;21050;-70
2023/03/25 11:13:02;;;;;;;0.90;0.30;;;;;;;;;;5029277;28;20898;-70
2023/03/25 11:15:34;;;;;;;0.40;0.40;;;;;;;;;;5027473;28;20435;-71
2023/03/25 11:18:08;;;;;;;0.20;0.20;;;;;;;;;;5009616;28;20436;-69
2023/03/25 11:20:37;;;;;;;1.00;0.23;;;;;;;;;;5009351;28;20436;-69
2023/03/25 11:23:15;;;;;;;0.10;0.10;;;;;;;;;;5009488;28;20467;-69
2023/03/25 11:25:43;;;;;;;0.20;0.20;;;;;;;;;;5009247;28;20432;-70
2023/03/25 11:28:21;;;;;;;0.25;0.25;;;;;;;;;;5011333;28;20475;-68
2023/03/25 11:31:08;;;;;;;0.30;0.30;;;;;;;;;;5027510;28;20441;-71
2023/03/25 11:33:36;;;;;;;0.20;0.20;;;;;;;;;;5028996;28;20435;-68
2023/03/25 11:36:20;;;;;;;0.30;0.30;;;;;;;;;;5026979;28;20437;-69
2023/03/25 11:38:52;;;;;;;2.17;0.57;;;;;;;;;;5030060;28;21011;-69
2023/03/25 11:41:19;;;;;;;0.90;0.20;;;;;;;;;;5033028;28;20533;-70
2023/03/25 11:43:48;;;;;;;0.30;0.30;;;;;;;;;;5033070;28;20435;-69
2023/03/25 11:46:20;;;;;;;0.20;0.20;;;;;;;;;;5033088;28;20474;-71
2023/03/25 11:48:49;;;;;;;0.80;0.20;;;;;;;;;;5031154;28;20430;-70
2023/03/25 11:51:24;;;;;;;1.10;0.22;;;;;;;;;;5032819;28;20508;-71
2023/03/25 11:53:59;;;;;;;1.10;0.20;;;;;;;;;;5032316;28;20434;-70
2023/03/25 11:56:29;;;;;;;0.20;0.20;;;;;;;;;;5031213;28;20434;-70
2023/03/25 11:59:00;;;;;;;1.45;0.65;;;;;;;;;;5032883;28;20431;-71
2023/03/25 12:01:29;;;;;;;0.15;0.15;;;;;;;;;;5031855;28;20458;-71
2023/03/25 12:04:07;;;;;;;0.80;0.80;;;;;;;;;;5029670;28;20433;-71
2023/03/25 12:06:34;;;;;;;0.20;0.20;;;;;;;;;;5011357;28;20444;-71
2023/03/25 12:09:07;;;;;;;0.10;0.10;;;;;;;;;;5013282;28;20439;-71
2023/03/25 12:11:45;;;;;;;0.10;0.10;;;;;;;;;;5013140;28;20436;-72
2023/03/25 12:14:28;;;;;;;0.85;0.25;;;;;;;;;;5012508;28;20429;-72
2023/03/25 12:16:57;;;;;;;0.20;0.20;;;;;;;;;;5012732;28;21206;-71
2023/03/25 12:19:42;;;;;;;0.30;0.30;;;;;;;;;;5012841;28;20435;-71
2023/03/25 12:22:20;;;;;;;0.50;0.30;;;;;;;;;;5011553;28;20432;-70
2023/03/25 12:24:53;;;;;;;0.30;0.30;;;;;;;;;;5012586;28;20903;-70
2023/03/25 12:27:47;;;;;;;0.28;0.28;;;;;;;;;;5018821;28;20438;-72
2023/03/25 12:30:43;;;;;;;0.50;0.20;;;;;;;;;;5029609;28;20485;-71
2023/03/25 12:33:25;;;;;;;1.40;0.28;;;;;;;;;;5032359;28;20443;-71
2023/03/25 12:36:09;;;;;;;0.30;0.30;;;;;;;;;;5030220;28;20435;-69
2023/03/25 12:38:46;;;;;;;0.20;0.20;;;;;;;;;;5031950;28;20454;-69
2023/03/25 12:41:31;;;;;;;0.70;0.30;;;;;;;;;;5032381;28;20794;-69
2023/03/25 12:44:30;;;;;;;0.20;0.20;;;;;;;;;;5029659;28;20441;-71
2023/03/25 12:47:00;;;;;;;0.30;0.30;;;;;;;;;;5011956;28;20435;-69
2023/03/25 12:49:35;;;;;;;0.70;0.40;;;;;;;;;;5011441;28;21145;-69
2023/03/25 12:52:14;;;;;;;0.20;0.20;;;;;;;;;;5012173;28;20527;-71
2023/03/25 12:54:43;;;;;;;0.60;0.30;;;;;;;;;;5010551;28;20443;-70
2023/03/25 12:57:20;;;;;;;1.00;0.60;;;;;;;;;;5024194;28;20948;-71
2023/03/25 13:00:06;;;;;;;0.20;0.20;;;;;;;;;;5031729;28;20433;-71
2023/03/25 13:02:51;;;;;;;0.17;0.17;;;;;;;;;;5030634;28;20430;-72
2023/03/25 13:05:21;;;;;;;0.40;0.40;;;;;;;;;;5031509;28;20492;-71
2023/03/25 13:07:53;;;;;;;0.10;0.10;;;;;;;;;;5029124;28;20480;-71
2023/03/25 13:10:21;;;;;;;0.60;0.60;;;;;;;;;;5031643;28;20431;-68
2023/03/25 13:12:48;;;;;;;0.15;0.15;;;;;;;;;;5031595;28;20491;-68
2023/03/25 13:15:23;;;;;;;0.20;0.20;;;;;;;;;;5029513;28;20431;-68
2023/03/25 13:17:56;;;;;;;0.90;0.40;;;;;;;;;;5031359;28;20530;-68
2023/03/25 13:20:25;;;;;;;3.10;0.40;;;;;;;;;;5031556;28;20430;-69
2023/03/25 13:22:58;;;;;;;1.42;0.73;;;;;;;;;;5031463;28;20423;-68
2023/03/25 13:25:35;;;;;;;4.18;0.60;;;;;;;;;;5028508;28;20431;-68
2023/03/25 13:28:03;;;;;;;0.20;0.20;;;;;;;;;;5029695;28;20853;-69
2023/03/25 13:30:33;;;;;;;0.50;0.50;;;;;;;;;;5031342;28;20430;-68
2023/03/25 13:33:12;;;;;;;0.20;0.20;;;;;;;;;;5030910;28;20561;-69
2023/03/25 13:35:52;;;;;;;0.20;0.20;;;;;;;;;;5030650;28;20450;-68
2023/03/25 13:38:33;;;;;;;0.20;0.20;;;;;;;;;;5029898;28;20427;-68
2023/03/25 13:41:25;;;;;;;0.30;0.30;;;;;;;;;;5026919;28;20458;-69
2023/03/25 13:43:56;;;;;;;0.30;0.30;;;;;;;;;;5023264;28;20975;-68
2023/03/25 13:46:26;;;;;;;0.30;0.30;;;;;;;;;;5028380;28;21117;-69
2023/03/25 13:48:56;;;;;;;0.20;0.20;;;;;;;;;;5030828;28;20508;-68
2023/03/25 13:51:23;;;;;;;0.40;0.40;;;;;;;;;;5028675;28;20431;-69
2023/03/25 13:53:59;;;;;;;0.20;0.20;;;;;;;;;;5030234;28;20427;-68
2023/03/25 13:56:45;;;;;;;0.20;0.20;;;;;;;;;;5030628;28;20431;-71
2023/03/25 13:59:18;;;;;;;0.20;0.20;;;;;;;;;;5028969;28;20435;-68
2023/03/25 14:02:04;;;;;;;0.53;0.53;;;;;;;;;;5029782;28;20504;-69
2023/03/25 14:04:50;;;;;;;0.30;0.30;;;;;;;;;;5029866;28;21138;-69
2023/03/25 14:07:36;;;;;;;0.17;0.17;;;;;;;;;;5028520;28;20438;-69
2023/03/25 14:10:13;;;;;;;0.40;0.40;;;;;;;;;;5029864;28;20435;-70
2023/03/25 14:12:50;;;;;;;0.13;0.13;;;;;;;;;;5030570;28;20434;-69
2023/03/25 14:15:26;;;;;;;0.20;0.20;;;;;;;;;;5029971;28;20435;-69
2023/03/25 14:17:54;;;;;;;0.40;0.40;;;;;;;;;;5030768;28;20847;-69
2023/03/25 14:20:36;;;;;;;0.30;0.30;;;;;;;;;;5030563;28;20434;-70
2023/03/25 14:23:16;;;;;;;0.40;0.40;;;;;;;;;;5028758;28;20423;-70
2023/03/25 14:25:53;;;;;;;0.20;0.20;;;;;;;;;;5030103;28;20484;-70
2023/03/25 14:28:31;;;;;;;0.10;0.10;;;;;;;;;;5030735;28;20942;-70
2023/03/25 14:31:07;;;;;;;2.45;0.25;;;;;;;;;;5028707;28;20431;-70
2023/03/25 14:34:07;;;;;;;0.80;0.20;;;;;;;;;;5029854;28;20441;-69
2023/03/25 14:36:37;;;;;;;0.30;0.30;;;;;;;;;;5027596;28;20940;-69
2023/03/25 14:39:31;;;;;;;1.20;0.30;;;;;;;;;;5028870;28;20457;-69
2023/03/25 14:42:07;;;;;;;1.00;0.20;;;;;;;;;;5021516;28;20517;-69
2023/03/25 14:44:39;;;;;;;0.70;0.20;;;;;;;;;;5028534;28;20438;-69
2023/03/25 14:47:19;;;;;;;0.60;0.60;;;;;;;;;;5027572;28;20441;-70
2023/03/25 14:50:16;;;;;;;0.20;0.20;;;;;;;;;;5030290;28;20441;-70
2023/03/25 14:52:44;;;;;;;0.20;0.20;;;;;;;;;;5029081;28;20434;-69
2023/03/25 14:55:17;;;;;;;0.40;0.40;;;;;;;;;;5029217;28;20431;-69
2023/03/25 14:57:45;;;;;;;0.20;0.20;;;;;;;;;;5030011;28;21036;-70
2023/03/25 15:00:22;;;;;;;0.30;0.30;;;;;;;;;;5028344;28;20521;-69
2023/03/25 15:02:51;;;;;;;0.70;0.70;;;;;;;;;;5029629;28;20509;-69
2023/03/25 15:05:28;;;;;;;0.30;0.30;;;;;;;;;;5026796;28;20489;-69
2023/03/25 15:08:09;;;;;;;0.20;0.20;;;;;;;;;;5029933;28;20430;-70
2023/03/25 15:10:41;;;;;;;0.30;0.30;;;;;;;;;;5029531;28;20452;-70